Bellevue, Louisiana
Current Conditions -  °F | °C
As of 12:58 AM on Thursday 23 Oct 2014 (Local Time) from KBAD Reporting Station
Clear Clear  
Wind Chill: 59°   Ceiling: Unl
Heat Index: 59°   Visibility: 10mi
Dew Point: 50°   Wind: 6mph
Humidity: 73%   Direction: 50°NE
Pressure: 30.13"   Gusts: NA
Location:  32.5391°N, 93.5257°W
Report Text: KBAD 230558Z AUTO 05005KT 10SM CLR 15/10 A3013 RMK AO2 SLP205 T01490102 10191 20141 402590125 57007
Loading
Personal Weather Stations






























Interactive Weather Map
Tropical Storm Tracking
New forecast layout! Learn more

10-Day Weather Forecast

Advertisements
Track Severe Weather on mobile